Time;durP1;ratioP1;P1;durP2;ratioP2;P2;SDS_P1;SDS_P2;PMS_P1;PMS_P2;Temp;Humidity;BMP_temperature;BMP_pressure;BME280_temperature;BME280_humidity;BME280_pressure;Samples;Min_cycle;Max_cycle;Signal;HPM_P1;HPM_P2
2023/11/19 00:02:15;;;;;;;;;;;;;;;;;;2197541;59;2390;-28
2023/11/19 00:04:45;;;;;;;;;;;;;;;;;;2196543;59;2103;-28
2023/11/19 00:07:16;;;;;;;;;;;;;;;;;;2195263;67;2113;-27
2023/11/19 00:09:46;;;;;;;;;;;;;;;;;;2196220;60;1900;-27
2023/11/19 00:12:16;;;;;;;;;;;;;;;;;;2197694;59;2656;-28
2023/11/19 00:14:46;;;;;;;;;;;;;;;;;;2196534;59;1911;-27
2023/11/19 00:17:16;;;;;;;;;;;;;;;;;;2197582;67;1961;-28
2023/11/19 00:19:47;;;;;;;;;;;;;;;;;;2196309;67;2094;-28
2023/11/19 00:22:17;;;;;;;;;;;;;;;;;;2197132;60;1635;-27
2023/11/19 00:24:47;;;;;;;;;;;;;;;;;;2196350;59;1930;-27
2023/11/19 00:27:17;;;;;;;;;;;;;;;;;;2196434;67;1901;-28
2023/11/19 00:29:48;;;;;;;;;;;;;;;;;;2196590;59;2221;-27
2023/11/19 00:32:18;;;;;;;;;;;;;;;;;;2197700;59;1674;-28
2023/11/19 00:34:48;;;;;;;;;;;;;;;;;;2197227;59;2205;-27
2023/11/19 00:37:19;;;;;;;;;;;;;;;;;;2196798;59;1928;-28
2023/11/19 00:39:49;;;;;;;;;;;;;;;;;;2197171;59;2178;-26
2023/11/19 00:42:20;;;;;;;;;;;;;;;;;;2196922;59;2361;-26
2023/11/19 00:44:50;;;;;;;;;;;;;;;;;;2197066;59;2035;-27
2023/11/19 00:47:21;;;;;;;;;;;;;;;;;;2196192;67;2318;-25
2023/11/19 00:49:51;;;;;;;;;;;;;;;;;;2197527;59;2055;-28
2023/11/19 00:52:21;;;;;;;;;;;;;;;;;;2195824;59;2272;-28
2023/11/19 00:54:52;;;;;;;;;;;;;;;;;;2196329;59;1888;-27
2023/11/19 00:57:22;;;;;;;;;;;;;;;;;;2195967;67;1948;-25
2023/11/19 00:59:52;;;;;;;;;;;;;;;;;;2196426;59;1937;-29
2023/11/19 01:02:23;;;;;;;;;;;;;;;;;;2195960;59;2615;-28
2023/11/19 01:04:55;;;;;;;;;;;;;;;;;;2195855;59;2256;-28
2023/11/19 01:07:27;;;;;;;;;;;;;;;;;;2197229;59;1906;-28
2023/11/19 01:09:57;;;;;;;;;;;;;;;;;;2197753;67;2535;-26
2023/11/19 01:12:27;;;;;;;;;;;;;;;;;;2197449;59;1807;-28
2023/11/19 01:14:57;;;;;;;;;;;;;;;;;;2197162;59;1819;-26
2023/11/19 01:17:28;;;;;;;;;;;;;;;;;;2197224;67;2112;-26
2023/11/19 01:19:58;;;;;;;;;;;;;;;;;;2197973;67;2432;-26
2023/11/19 01:22:28;;;;;;;;;;;;;;;;;;2197685;59;2233;-26
2023/11/19 01:24:58;;;;;;;;;;;;;;;;;;2199872;59;1951;-26
2023/11/19 01:27:29;;;;;;;;;;;;;;;;;;2201598;59;1893;-26
2023/11/19 01:30:00;;;;;;;;;;;;;;;;;;2200311;59;2456;-28
2023/11/19 01:32:30;;;;;;;;;;;;;;;;;;2201247;59;1484;-26
2023/11/19 01:35:01;;;;;;;;;;;;;;;;;;2200873;59;1882;-26
2023/11/19 01:37:37;;;;;;;;;;;;;;;;;;2196981;59;1992;-27
2023/11/19 01:40:10;;;;;;;;;;;;;;;;;;2197888;59;2638;-27
2023/11/19 01:42:41;;;;;;;;;;;;;;;;;;2197280;59;2575;-26
2023/11/19 01:45:19;;;;;;;;;;;;;;;;;;2197554;67;1769;-27
2023/11/19 01:47:50;;;;;;;;;;;;;;;;;;2199853;67;2182;-27
2023/11/19 01:50:21;;;;;;;;;;;;;;;;;;2202060;59;2384;-27
2023/11/19 01:52:54;;;;;;;;;;;;;;;;;;2199784;67;3030;-27
2023/11/19 01:55:28;;;;;;;;;;;;;;;;;;2198757;67;1780;-26
2023/11/19 01:58:00;;;;;;;;;;;;;;;;;;2197884;67;1992;-27
2023/11/19 02:00:30;;;;;;;;;;;;;;;;;;2197863;59;2001;-27
2023/11/19 02:03:00;;;;;;;;;;;;;;;;;;2197682;59;2280;-27
2023/11/19 02:05:32;;;;;;;;;;;;;;;;;;2197499;67;1951;-27
2023/11/19 02:08:03;;;;;;;;;;;;;;;;;;2198289;59;1763;-27
2023/11/19 02:10:33;;;;;;;;;;;;;;;;;;2197779;59;1973;-27
2023/11/19 02:13:06;;;;;;;;;;;;;;;;;;2197447;59;1909;-29
2023/11/19 02:15:36;;;;;;;;;;;;;;;;;;2196318;67;1873;-29
2023/11/19 02:18:22;;;;;;;;;;;;;;;;;;2196970;59;1941;-29
2023/11/19 02:20:54;;;;;;;;;;;;;;;;;;2196786;67;2657;-27
2023/11/19 02:23:25;;;;;;;;;;;;;;;;;;2197049;59;1688;-27
2023/11/19 02:25:58;;;;;;;;;;;;;;;;;;2197422;59;1959;-27
2023/11/19 02:28:29;;;;;;;;;;;;;;;;;;2195852;59;2437;-26
2023/11/19 02:30:59;;;;;;;;;;;;;;;;;;2197720;60;2740;-27
2023/11/19 02:33:29;;;;;;;;;;;;;;;;;;2196105;67;1768;-27
2023/11/19 02:36:00;;;;;;;;;;;;;;;;;;2198187;59;1879;-27
2023/11/19 02:38:30;;;;;;;;;;;;;;;;;;2195664;59;2000;-27
2023/11/19 02:41:07;;;;;;;;;;;;;;;;;;2197368;59;2574;-27
2023/11/19 02:43:38;;;;;;;;;;;;;;;;;;2196099;59;2349;-27
2023/11/19 02:46:09;;;;;;;;;;;;;;;;;;2196915;59;2529;-27
2023/11/19 02:48:40;;;;;;;;;;;;;;;;;;2197028;67;2234;-27
2023/11/19 02:51:10;;;;;;;;;;;;;;;;;;2197092;59;1792;-29
2023/11/19 02:53:41;;;;;;;;;;;;;;;;;;2196514;67;2487;-29
2023/11/19 02:56:25;;;;;;;;;;;;;;;;;;2196134;67;2273;-29
2023/11/19 02:58:55;;;;;;;;;;;;;;;;;;2196411;59;2167;-29
2023/11/19 03:01:33;;;;;;;;;;;;;;;;;;2197946;67;1776;-28
2023/11/19 03:04:04;;;;;;;;;;;;;;;;;;2198033;67;3226;-28
2023/11/19 03:06:34;;;;;;;;;;;;;;;;;;2196636;59;1889;-29
2023/11/19 03:09:10;;;;;;;;;;;;;;;;;;2196864;64;1906;-28
2023/11/19 03:11:40;;;;;;;;;;;;;;;;;;2197009;59;2294;-28
2023/11/19 03:14:11;;;;;;;;;;;;;;;;;;2197301;59;1963;-29
2023/11/19 03:16:44;;;;;;;;;;;;;;;;;;2193217;67;1945;-29
2023/11/19 03:19:15;;;;;;;;;;;;;;;;;;2191395;60;1714;-26
2023/11/19 03:21:45;;;;;;;;;;;;;;;;;;2192846;59;1688;-27
2023/11/19 03:24:15;;;;;;;;;;;;;;;;;;2196880;67;3166;-27
2023/11/19 03:26:52;;;;;;;;;;;;;;;;;;2195973;67;2535;-27
2023/11/19 03:29:23;;;;;;;;;;;;;;;;;;2196152;59;3122;-27
2023/11/19 03:31:53;;;;;;;;;;;;;;;;;;2196752;59;1818;-27
2023/11/19 03:34:23;;;;;;;;;;;;;;;;;;2196805;67;1844;-28
2023/11/19 03:36:53;;;;;;;;;;;;;;;;;;2196042;59;1913;-27
2023/11/19 03:39:25;;;;;;;;;;;;;;;;;;2197040;59;2446;-27
2023/11/19 03:41:55;;;;;;;;;;;;;;;;;;2196140;59;1945;-27
2023/11/19 03:44:26;;;;;;;;;;;;;;;;;;2197240;60;2158;-27
2023/11/19 03:46:57;;;;;;;;;;;;;;;;;;2195929;59;2115;-27
2023/11/19 03:49:27;;;;;;;;;;;;;;;;;;2196686;67;1783;-27
2023/11/19 03:51:58;;;;;;;;;;;;;;;;;;2193522;59;2409;-27
2023/11/19 03:54:28;;;;;;;;;;;;;;;;;;2197092;67;1997;-27
2023/11/19 03:57:00;;;;;;;;;;;;;;;;;;2196013;67;1928;-27
2023/11/19 03:59:30;;;;;;;;;;;;;;;;;;2197087;67;2372;-29
2023/11/19 04:02:00;;;;;;;;;;;;;;;;;;2197784;59;3136;-27
2023/11/19 04:04:30;;;;;;;;;;;;;;;;;;2197421;59;1820;-27
2023/11/19 04:07:02;;;;;;;;;;;;;;;;;;2196626;67;2263;-27
2023/11/19 04:09:33;;;;;;;;;;;;;;;;;;2196538;67;2066;-29
2023/11/19 04:12:03;;;;;;;;;;;;;;;;;;2198064;59;2413;-29
2023/11/19 04:14:34;;;;;;;;;;;;;;;;;;2196877;64;2272;-27
2023/11/19 04:17:04;;;;;;;;;;;;;;;;;;2197255;59;1989;-28
2023/11/19 04:19:34;;;;;;;;;;;;;;;;;;2197077;59;1915;-27
2023/11/19 04:22:04;;;;;;;;;;;;;;;;;;2194505;60;1995;-27
2023/11/19 04:24:35;;;;;;;;;;;;;;;;;;2196553;67;1921;-29
2023/11/19 04:27:06;;;;;;;;;;;;;;;;;;2196723;67;3061;-29
2023/11/19 04:29:36;;;;;;;;;;;;;;;;;;2196107;59;2940;-29
2023/11/19 04:32:07;;;;;;;;;;;;;;;;;;2197492;59;1853;-29
2023/11/19 04:34:37;;;;;;;;;;;;;;;;;;2196946;59;2046;-29
2023/11/19 04:37:09;;;;;;;;;;;;;;;;;;2197715;59;1937;-29
2023/11/19 04:39:39;;;;;;;;;;;;;;;;;;2196375;59;2548;-27
2023/11/19 04:42:10;;;;;;;;;;;;;;;;;;2197977;59;1948;-27
2023/11/19 04:44:40;;;;;;;;;;;;;;;;;;2193472;59;1828;-27
2023/11/19 04:47:10;;;;;;;;;;;;;;;;;;2197801;67;1835;-27
2023/11/19 04:49:43;;;;;;;;;;;;;;;;;;2196253;63;1678;-27
2023/11/19 04:52:14;;;;;;;;;;;;;;;;;;2196851;67;2595;-27
2023/11/19 04:54:44;;;;;;;;;;;;;;;;;;2197235;67;2159;-27
2023/11/19 04:57:14;;;;;;;;;;;;;;;;;;2196548;63;2078;-29
2023/11/19 04:59:45;;;;;;;;;;;;;;;;;;2197600;59;2117;-27
2023/11/19 05:02:15;;;;;;;;;;;;;;;;;;2197211;67;2405;-27
2023/11/19 05:04:46;;;;;;;;;;;;;;;;;;2196899;67;1968;-27
2023/11/19 05:07:17;;;;;;;;;;;;;;;;;;2197508;67;1792;-29
2023/11/19 05:09:47;;;;;;;;;;;;;;;;;;2196768;67;2017;-27
2023/11/19 05:12:17;;;;;;;;;;;;;;;;;;2197343;59;1905;-27
2023/11/19 05:14:50;;;;;;;;;;;;;;;;;;2197549;60;1627;-27
2023/11/19 05:17:20;;;;;;;;;;;;;;;;;;2196591;59;2105;-29
2023/11/19 05:19:50;;;;;;;;;;;;;;;;;;2196503;59;2377;-29
2023/11/19 05:22:21;;;;;;;;;;;;;;;;;;2196703;59;2521;-29
2023/11/19 05:24:51;;;;;;;;;;;;;;;;;;2197771;59;2470;-27
2023/11/19 05:27:23;;;;;;;;;;;;;;;;;;2196655;59;2248;-29
2023/11/19 05:29:54;;;;;;;;;;;;;;;;;;2196516;60;2495;-27
2023/11/19 05:32:24;;;;;;;;;;;;;;;;;;2197156;59;2255;-27
2023/11/19 05:34:54;;;;;;;;;;;;;;;;;;2196913;67;2525;-29
2023/11/19 05:37:25;;;;;;;;;;;;;;;;;;2196782;59;2021;-29
2023/11/19 05:39:55;;;;;;;;;;;;;;;;;;2197177;59;3244;-27
2023/11/19 05:42:27;;;;;;;;;;;;;;;;;;2203697;54;3739;-20
2023/11/19 05:44:57;;;;;;;;;;;;;;;;;;2199951;59;2124;-20
2023/11/19 05:47:28;;;;;;;;;;;;;;;;;;2204713;59;2518;-21
2023/11/19 05:49:58;;;;;;;;;;;;;;;;;;2204942;59;1938;-20
2023/11/19 05:52:33;;;;;;;;;;;;;;;;;;2202230;67;1916;-20
2023/11/19 05:55:09;;;;;;;;;;;;;;;;;;2200207;59;2365;-21
2023/11/19 05:57:40;;;;;;;;;;;;;;;;;;2199567;67;2210;-21
2023/11/19 06:00:12;;;;;;;;;;;;;;;;;;2199963;67;1752;-20
2023/11/19 06:02:43;;;;;;;;;;;;;;;;;;2199591;59;2190;-20
2023/11/19 06:05:13;;;;;;;;;;;;;;;;;;2199453;67;2557;-20
2023/11/19 06:07:43;;;;;;;;;;;;;;;;;;2198240;67;1803;-20
2023/11/19 06:10:16;;;;;;;;;;;;;;;;;;2199769;67;2412;-20
2023/11/19 06:12:47;;;;;;;;;;;;;;;;;;2198807;59;2683;-20
2023/11/19 06:15:17;;;;;;;;;;;;;;;;;;2200074;67;1836;-20
2023/11/19 06:17:48;;;;;;;;;;;;;;;;;;2199207;59;1979;-20
2023/11/19 06:20:19;;;;;;;;;;;;;;;;;;2199777;67;2251;-20
2023/11/19 06:22:50;;;;;;;;;;;;;;;;;;2199494;67;1889;-19
2023/11/19 06:25:20;;;;;;;;;;;;;;;;;;2199213;67;2398;-20
2023/11/19 06:27:50;;;;;;;;;;;;;;;;;;2197206;59;3284;-20
2023/11/19 06:30:21;;;;;;;;;;;;;;;;;;2199713;59;2900;-20
2023/11/19 06:32:51;;;;;;;;;;;;;;;;;;2199244;59;2349;-20
2023/11/19 06:35:21;;;;;;;;;;;;;;;;;;2199805;59;1778;-20
2023/11/19 06:37:51;;;;;;;;;;;;;;;;;;2199060;67;2150;-19
2023/11/19 06:40:22;;;;;;;;;;;;;;;;;;2198901;59;1834;-20
2023/11/19 06:42:52;;;;;;;;;;;;;;;;;;2199743;59;2363;-19
2023/11/19 06:45:22;;;;;;;;;;;;;;;;;;2199993;63;1892;-19
2023/11/19 06:47:53;;;;;;;;;;;;;;;;;;2199341;67;1848;-19
2023/11/19 06:50:23;;;;;;;;;;;;;;;;;;2199950;67;2765;-19
2023/11/19 06:52:54;;;;;;;;;;;;;;;;;;2199100;59;1779;-20
2023/11/19 06:55:24;;;;;;;;;;;;;;;;;;2196655;67;2500;-22
2023/11/19 06:57:54;;;;;;;;;;;;;;;;;;2198901;67;2582;-23
2023/11/19 07:00:25;;;;;;;;;;;;;;;;;;2199503;67;2001;-23
2023/11/19 07:02:55;;;;;;;;;;;;;;;;;;2199755;59;2546;-23
2023/11/19 07:05:25;;;;;;;;;;;;;;;;;;2199050;67;1748;-22
2023/11/19 07:07:56;;;;;;;;;;;;;;;;;;2198482;59;2582;-22
2023/11/19 07:10:26;;;;;;;;;;;;;;;;;;2199438;67;1858;-23
2023/11/19 07:12:57;;;;;;;;;;;;;;;;;;2199209;60;1937;-22
2023/11/19 07:15:27;;;;;;;;;;;;;;;;;;2199387;67;1943;-22
2023/11/19 07:17:59;;;;;;;;;;;;;;;;;;2198998;67;2058;-23
2023/11/19 07:20:30;;;;;;;;;;;;;;;;;;2199533;59;2029;-22
2023/11/19 07:23:01;;;;;;;;;;;;;;;;;;2199175;67;2017;-22
2023/11/19 07:25:31;;;;;;;;;;;;;;;;;;2200069;67;1789;-24
2023/11/19 07:28:04;;;;;;;;;;;;;;;;;;2199163;59;2069;-23
2023/11/19 07:30:35;;;;;;;;;;;;;;;;;;2199741;59;2286;-22
2023/11/19 07:33:05;;;;;;;;;;;;;;;;;;2199053;59;1693;-23
2023/11/19 07:35:35;;;;;;;;;;;;;;;;;;2200382;59;2008;-23
2023/11/19 07:38:06;;;;;;;;;;;;;;;;;;2199153;67;1979;-22
2023/11/19 07:40:36;;;;;;;;;;;;;;;;;;2200545;59;2071;-22
2023/11/19 07:43:07;;;;;;;;;;;;;;;;;;2199801;59;1944;-23
2023/11/19 07:45:37;;;;;;;;;;;;;;;;;;2200871;59;1856;-23
2023/11/19 07:48:07;;;;;;;;;;;;;;;;;;2199753;67;1859;-24
2023/11/19 07:50:38;;;;;;;;;;;;;;;;;;2200226;67;2307;-22
2023/11/19 07:53:08;;;;;;;;;;;;;;;;;;2199990;67;1805;-22
2023/11/19 07:55:39;;;;;;;;;;;;;;;;;;2199691;59;2565;-23
2023/11/19 07:58:10;;;;;;;;;;;;;;;;;;2199355;67;2059;-19
2023/11/19 08:00:40;;;;;;;;;;;;;;;;;;2199505;67;2462;-19
2023/11/19 08:03:10;;;;;;;;;;;;;;;;;;2199536;59;2159;-19
2023/11/19 08:05:41;;;;;;;;;;;;;;;;;;2200377;67;2261;-19
2023/11/19 08:08:11;;;;;;;;;;;;;;;;;;2199599;59;1827;-19
2023/11/19 08:10:43;;;;;;;;;;;;;;;;;;2200234;67;1974;-20
2023/11/19 08:13:13;;;;;;;;;;;;;;;;;;2201968;59;2271;-19
2023/11/19 08:15:44;;;;;;;;;;;;;;;;;;2199830;60;2384;-19
2023/11/19 08:18:14;;;;;;;;;;;;;;;;;;2201755;67;2173;-19
2023/11/19 08:20:45;;;;;;;;;;;;;;;;;;2199033;67;1873;-19
2023/11/19 08:23:15;;;;;;;;;;;;;;;;;;2200033;59;2304;-19
2023/11/19 08:25:46;;;;;;;;;;;;;;;;;;2198822;67;1826;-19
2023/11/19 08:28:16;;;;;;;;;;;;;;;;;;2200717;59;2223;-19
2023/11/19 08:30:46;;;;;;;;;;;;;;;;;;2199734;59;2380;-19
2023/11/19 08:33:17;;;;;;;;;;;;;;;;;;2198503;59;2088;-19
2023/11/19 08:35:47;;;;;;;;;;;;;;;;;;2198945;59;2348;-19
2023/11/19 08:38:18;;;;;;;;;;;;;;;;;;2197773;67;2344;-19
2023/11/19 08:40:48;;;;;;;;;;;;;;;;;;2197445;59;2157;-19
2023/11/19 08:43:18;;;;;;;;;;;;;;;;;;2200667;59;2019;-19
2023/11/19 08:45:48;;;;;;;;;;;;;;;;;;2198773;60;2648;-19
2023/11/19 08:48:19;;;;;;;;;;;;;;;;;;2199006;59;2053;-19
2023/11/19 08:50:49;;;;;;;;;;;;;;;;;;2199044;59;1886;-19
2023/11/19 08:53:20;;;;;;;;;;;;;;;;;;2199328;59;2441;-19
2023/11/19 08:55:50;;;;;;;;;;;;;;;;;;2199739;59;3839;-19
2023/11/19 08:58:21;;;;;;;;;;;;;;;;;;2199275;67;2275;-19
2023/11/19 09:00:51;;;;;;;;;;;;;;;;;;2199262;67;2332;-19
2023/11/19 09:03:22;;;;;;;;;;;;;;;;;;2199340;59;2304;-19
2023/11/19 09:05:52;;;;;;;;;;;;;;;;;;2200187;59;2507;-19
2023/11/19 09:08:22;;;;;;;;;;;;;;;;;;2197287;59;1706;-19
2023/11/19 09:10:53;;;;;;;;;;;;;;;;;;2198184;59;2374;-19
2023/11/19 09:13:23;;;;;;;;;;;;;;;;;;2199932;59;1941;-19
2023/11/19 09:15:53;;;;;;;;;;;;;;;;;;2199391;59;2046;-19
2023/11/19 09:18:23;;;;;;;;;;;;;;;;;;2199388;67;1998;-19
2023/11/19 09:20:54;;;;;;;;;;;;;;;;;;2199392;59;2450;-19
2023/11/19 09:23:25;;;;;;;;;;;;;;;;;;2199243;67;2374;-19
2023/11/19 09:25:55;;;;;;;;;;;;;;;;;;2199119;61;2284;-19
2023/11/19 09:28:25;;;;;;;;;;;;;;;;;;2199632;59;2317;-19
2023/11/19 09:30:56;;;;;;;;;;;;;;;;;;2196784;59;2753;-19
2023/11/19 09:33:26;;;;;;;;;;;;;;;;;;2201772;59;2426;-19
2023/11/19 09:35:57;;;;;;;;;;;;;;;;;;2199246;59;2287;-19
2023/11/19 09:38:27;;;;;;;;;;;;;;;;;;2198967;67;3321;-19
2023/11/19 09:40:59;;;;;;;;;;;;;;;;;;2196151;59;2241;-19
2023/11/19 09:43:30;;;;;;;;;;;;;;;;;;2199526;67;2024;-19
2023/11/19 09:46:06;;;;;;;;;;;;;;;;;;2199237;59;2581;-19
2023/11/19 09:48:40;;;;;;;;;;;;;;;;;;2199748;59;2419;-19
2023/11/19 09:51:10;;;;;;;;;;;;;;;;;;2198729;67;2248;-19
2023/11/19 09:53:41;;;;;;;;;;;;;;;;;;2200115;67;2997;-19
2023/11/19 09:56:12;;;;;;;;;;;;;;;;;;2198047;59;2378;-19
2023/11/19 09:58:43;;;;;;;;;;;;;;;;;;2199625;67;1961;-19
2023/11/19 10:01:13;;;;;;;;;;;;;;;;;;2197876;59;2070;-19
2023/11/19 10:03:46;;;;;;;;;;;;;;;;;;2199397;59;2188;-19
2023/11/19 10:06:18;;;;;;;;;;;;;;;;;;2198346;59;2312;-19
2023/11/19 10:08:49;;;;;;;;;;;;;;;;;;2199905;59;2017;-18
2023/11/19 10:11:19;;;;;;;;;;;;;;;;;;2199110;67;1983;-19
2023/11/19 10:13:50;;;;;;;;;;;;;;;;;;2199898;67;2591;-19
2023/11/19 10:16:27;;;;;;;;;;;;;;;;;;2198816;67;2022;-19
2023/11/19 10:18:58;;;;;;;;;;;;;;;;;;2199510;60;1948;-19
2023/11/19 10:21:28;;;;;;;;;;;;;;;;;;2199151;59;2328;-19
2023/11/19 10:24:00;;;;;;;;;;;;;;;;;;2198953;59;2718;-19
2023/11/19 10:26:30;;;;;;;;;;;;;;;;;;2199174;67;1958;-19
2023/11/19 10:29:01;;;;;;;;;;;;;;;;;;2198652;59;2271;-19
2023/11/19 10:31:31;;;;;;;;;;;;;;;;;;2199091;59;3336;-19
2023/11/19 10:34:01;;;;;;;;;;;;;;;;;;2199767;59;2268;-18
2023/11/19 10:36:40;;;;;;;;;;;;;;;;;;2199471;59;1926;-18
2023/11/19 10:39:11;;;;;;;;;;;;;;;;;;2199225;59;1953;-19
2023/11/19 10:41:41;;;;;;;;;;;;;;;;;;2198963;59;1782;-18
2023/11/19 10:44:12;;;;;;;;;;;;;;;;;;2199027;59;2335;-18
2023/11/19 10:46:43;;;;;;;;;;;;;;;;;;2198998;67;2053;-19
2023/11/19 10:49:13;;;;;;;;;;;;;;;;;;2199413;67;2298;-18
2023/11/19 10:51:46;;;;;;;;;;;;;;;;;;2199987;59;2357;-18
2023/11/19 10:54:18;;;;;;;;;;;;;;;;;;2199741;67;1753;-18
2023/11/19 10:56:58;;;;;;;;;;;;;;;;;;2200218;67;2419;-18
2023/11/19 10:59:30;;;;;;;;;;;;;;;;;;2199393;67;2441;-18
2023/11/19 11:02:05;;;;;;;;;;;;;;;;;;2199024;59;2547;-18
2023/11/19 11:04:39;;;;;;;;;;;;;;;;;;2198196;67;1871;-19
2023/11/19 11:07:10;;;;;;;;;;;;;;;;;;2198608;67;2392;-18
2023/11/19 11:09:41;;;;;;;;;;;;;;;;;;2199526;67;2513;-19
2023/11/19 11:12:12;;;;;;;;;;;;;;;;;;2199911;59;2436;-18
2023/11/19 11:14:44;;;;;;;;;;;;;;;;;;2199747;59;1848;-18
2023/11/19 11:17:17;;;;;;;;;;;;;;;;;;2199085;59;2076;-18
2023/11/19 11:19:47;;;;;;;;;;;;;;;;;;2196936;59;1940;-18
2023/11/19 11:22:18;;;;;;;;;;;;;;;;;;2198385;59;2153;-20
2023/11/19 11:25:21;;;;;;;;;;;;;;;;;;2199554;67;1811;-18
2023/11/19 11:28:03;;;;;;;;;;;;;;;;;;2193259;59;2497;-18
2023/11/19 11:30:43;;;;;;;;;;;;;;;;;;2198752;59;2969;-18
2023/11/19 11:33:32;;;;;;;;;;;;;;;;;;2199119;59;1871;-19
2023/11/19 11:36:22;;;;;;;;;;;;;;;;;;2198471;59;1777;-18
2023/11/19 11:38:53;;;;;;;;;;;;;;;;;;2196543;60;2234;-18
2023/11/19 11:41:25;;;;;;;;;;;;;;;;;;2196787;59;2237;-18
2023/11/19 11:43:55;;;;;;;;;;;;;;;;;;2203891;53;2204;-26
2023/11/19 11:46:32;;;;;;;;;;;;;;;;;;2201737;59;2118;-26
2023/11/19 11:49:12;;;;;;;;;;;;;;;;;;2201761;59;2725;-26
2023/11/19 11:51:45;;;;;;;;;;;;;;;;;;2203433;59;2494;-26
2023/11/19 11:54:18;;;;;;;;;;;;;;;;;;2199427;67;1803;-26
2023/11/19 11:57:01;;;;;;;;;;;;;;;;;;2198976;59;2384;-26
2023/11/19 11:59:36;;;;;;;;;;;;;;;;;;2200825;59;2125;-27
2023/11/19 12:02:07;;;;;;;;;;;;;;;;;;2200637;59;2421;-26
2023/11/19 12:04:39;;;;;;;;;;;;;;;;;;2199118;59;2136;-26
2023/11/19 12:07:14;;;;;;;;;;;;;;;;;;2199437;67;1729;-26
2023/11/19 12:09:48;;;;;;;;;;;;;;;;;;2201342;59;1704;-26
2023/11/19 12:12:22;;;;;;;;;;;;;;;;;;2200057;59;1769;-26
2023/11/19 12:14:59;;;;;;;;;;;;;;;;;;2199819;59;2228;-26
2023/11/19 12:17:32;;;;;;;;;;;;;;;;;;2201126;59;1918;-26
2023/11/19 12:20:03;;;;;;;;;;;;;;;;;;2198987;67;1724;-26
2023/11/19 12:22:33;;;;;;;;;;;;;;;;;;2200797;67;2011;-26
2023/11/19 12:25:08;;;;;;;;;;;;;;;;;;2199321;67;3406;-26
2023/11/19 12:27:43;;;;;;;;;;;;;;;;;;2201360;59;1898;-26
2023/11/19 12:30:17;;;;;;;;;;;;;;;;;;2199693;59;2496;-26
2023/11/19 12:32:47;;;;;;;;;;;;;;;;;;2200419;59;2345;-26
2023/11/19 12:35:17;;;;;;;;;;;;;;;;;;2199018;59;1825;-26
2023/11/19 12:37:52;;;;;;;;;;;;;;;;;;2197011;60;2116;-26
2023/11/19 12:40:23;;;;;;;;;;;;;;;;;;2200151;59;2537;-26
2023/11/19 12:42:54;;;;;;;;;;;;;;;;;;2203735;59;1767;-26
2023/11/19 12:45:24;;;;;;;;;;;;;;;;;;2198494;59;1987;-26
2023/11/19 12:48:04;;;;;;;;;;;;;;;;;;2199681;67;2109;-26
2023/11/19 12:50:53;;;;;;;;;;;;;;;;;;2199906;59;2631;-26
2023/11/19 12:53:24;;;;;;;;;;;;;;;;;;2199065;59;1859;-26
2023/11/19 12:55:55;;;;;;;;;;;;;;;;;;2199373;59;1745;-26
2023/11/19 12:58:29;;;;;;;;;;;;;;;;;;2199948;67;2501;-26
2023/11/19 13:01:03;;;;;;;;;;;;;;;;;;2200193;59;2588;-26
2023/11/19 13:03:35;;;;;;;;;;;;;;;;;;2199576;59;2485;-37
2023/11/19 13:06:07;;;;;;;;;;;;;;;;;;2198263;59;1848;-26
2023/11/19 13:08:38;;;;;;;;;;;;;;;;;;2198443;59;2608;-26
2023/11/19 13:11:08;;;;;;;;;;;;;;;;;;2196174;59;2483;-25
2023/11/19 13:13:58;;;;;;;;;;;;;;;;;;2199368;59;1870;-27
2023/11/19 13:16:28;;;;;;;;;;;;;;;;;;2197979;59;1989;-26
2023/11/19 13:19:00;;;;;;;;;;;;;;;;;;2197593;59;2226;-25
2023/11/19 13:21:30;;;;;;;;;;;;;;;;;;2198587;60;2448;-26
2023/11/19 13:24:01;;;;;;;;;;;;;;;;;;2199100;67;1946;-26
2023/11/19 13:26:31;;;;;;;;;;;;;;;;;;2200086;59;1934;-26
2023/11/19 13:29:01;;;;;;;;;;;;;;;;;;2198236;59;2168;-26
2023/11/19 13:31:31;;;;;;;;;;;;;;;;;;2200180;67;2421;-26
2023/11/19 13:34:02;;;;;;;;;;;;;;;;;;2199644;59;1742;-26
2023/11/19 13:36:33;;;;;;;;;;;;;;;;;;2198497;59;2072;-26
2023/11/19 13:39:03;;;;;;;;;;;;;;;;;;2198742;59;2261;-26
2023/11/19 13:41:34;;;;;;;;;;;;;;;;;;2195445;59;2093;-26
2023/11/19 13:44:04;;;;;;;;;;;;;;;;;;2198416;59;1883;-26
2023/11/19 13:46:34;;;;;;;;;;;;;;;;;;2196158;67;2400;-26
2023/11/19 13:49:04;;;;;;;;;;;;;;;;;;2195094;59;2643;-26
2023/11/19 13:51:35;;;;;;;;;;;;;;;;;;2198435;67;1880;-26
2023/11/19 13:54:05;;;;;;;;;;;;;;;;;;2198386;59;2844;-26
2023/11/19 13:56:35;;;;;;;;;;;;;;;;;;2196054;59;1628;-26
2023/11/19 13:59:08;;;;;;;;;;;;;;;;;;2196866;59;1997;-26
2023/11/19 14:01:38;;;;;;;;;;;;;;;;;;2199081;59;1802;-26
2023/11/19 14:04:09;;;;;;;;;;;;;;;;;;2198628;59;2682;-26
2023/11/19 14:06:39;;;;;;;;;;;;;;;;;;2199293;59;1743;-26
2023/11/19 14:09:09;;;;;;;;;;;;;;;;;;2197887;59;2209;-26
2023/11/19 14:11:40;;;;;;;;;;;;;;;;;;2198255;59;2028;-25
2023/11/19 14:14:10;;;;;;;;;;;;;;;;;;2197603;67;2154;-24
2023/11/19 14:16:40;;;;;;;;;;;;;;;;;;2200683;59;1661;-25
2023/11/19 14:19:11;;;;;;;;;;;;;;;;;;2195810;59;2533;-24
2023/11/19 14:21:41;;;;;;;;;;;;;;;;;;2202006;59;1817;-28
2023/11/19 14:24:11;;;;;;;;;;;;;;;;;;2199178;67;2007;-25
2023/11/19 14:26:41;;;;;;;;;;;;;;;;;;2198921;59;1929;-25
2023/11/19 14:29:12;;;;;;;;;;;;;;;;;;2198088;59;2943;-24
2023/11/19 14:31:42;;;;;;;;;;;;;;;;;;2197827;59;2231;-24
2023/11/19 14:34:12;;;;;;;;;;;;;;;;;;2197591;59;2319;-24
2023/11/19 14:36:42;;;;;;;;;;;;;;;;;;2198183;67;2236;-24
2023/11/19 14:39:13;;;;;;;;;;;;;;;;;;2197647;59;2330;-24
2023/11/19 14:41:44;;;;;;;;;;;;;;;;;;2198586;59;1874;-25
2023/11/19 14:44:14;;;;;;;;;;;;;;;;;;2197534;59;2482;-24
2023/11/19 14:46:45;;;;;;;;;;;;;;;;;;2198754;59;2066;-24
2023/11/19 14:49:15;;;;;;;;;;;;;;;;;;2199459;67;2748;-24
2023/11/19 14:51:45;;;;;;;;;;;;;;;;;;2202824;59;1760;-24
2023/11/19 14:54:16;;;;;;;;;;;;;;;;;;2199974;67;1838;-24
2023/11/19 14:56:46;;;;;;;;;;;;;;;;;;2199232;67;2189;-25
2023/11/19 14:59:17;;;;;;;;;;;;;;;;;;2197510;59;2278;-25
2023/11/19 15:01:48;;;;;;;;;;;;;;;;;;2198988;67;1692;-24
2023/11/19 15:04:18;;;;;;;;;;;;;;;;;;2198178;59;2136;-24
2023/11/19 15:06:48;;;;;;;;;;;;;;;;;;2195801;59;2067;-25
2023/11/19 15:09:20;;;;;;;;;;;;;;;;;;2195987;59;1792;-25
2023/11/19 15:11:53;;;;;;;;;;;;;;;;;;2198859;59;3773;-25
2023/11/19 15:14:23;;;;;;;;;;;;;;;;;;2197862;59;1813;-25
2023/11/19 15:16:54;;;;;;;;;;;;;;;;;;2197703;67;1992;-25
2023/11/19 15:19:24;;;;;;;;;;;;;;;;;;2196182;59;2487;-24
2023/11/19 15:21:55;;;;;;;;;;;;;;;;;;2198320;67;1873;-25
2023/11/19 15:24:25;;;;;;;;;;;;;;;;;;2197830;59;1927;-25
2023/11/19 15:26:56;;;;;;;;;;;;;;;;;;2198480;67;2268;-26
2023/11/19 15:29:26;;;;;;;;;;;;;;;;;;2197772;59;2055;-26
2023/11/19 15:31:57;;;;;;;;;;;;;;;;;;2198108;59;2121;-25
2023/11/19 15:34:27;;;;;;;;;;;;;;;;;;2197868;59;1939;-25
2023/11/19 15:36:57;;;;;;;;;;;;;;;;;;2199237;59;2232;-25
2023/11/19 15:39:29;;;;;;;;;;;;;;;;;;2198476;67;2061;-25
2023/11/19 15:41:59;;;;;;;;;;;;;;;;;;2198776;59;2334;-25
2023/11/19 15:44:29;;;;;;;;;;;;;;;;;;2198188;59;2363;-25
2023/11/19 15:47:00;;;;;;;;;;;;;;;;;;2198106;67;2280;-25
2023/11/19 15:49:30;;;;;;;;;;;;;;;;;;2198438;67;1784;-25
2023/11/19 15:52:01;;;;;;;;;;;;;;;;;;2200762;59;1968;-25
2023/11/19 15:54:31;;;;;;;;;;;;;;;;;;2198440;67;2586;-25
2023/11/19 15:57:01;;;;;;;;;;;;;;;;;;2199350;67;2137;-25
2023/11/19 15:59:32;;;;;;;;;;;;;;;;;;2199484;59;1932;-25
2023/11/19 16:02:02;;;;;;;;;;;;;;;;;;2200391;59;2457;-25
2023/11/19 16:04:32;;;;;;;;;;;;;;;;;;2198212;59;1948;-25
2023/11/19 16:07:02;;;;;;;;;;;;;;;;;;2198778;59;1640;-25
2023/11/19 16:09:33;;;;;;;;;;;;;;;;;;2199149;67;2121;-25
2023/11/19 16:12:03;;;;;;;;;;;;;;;;;;2199591;59;2547;-24
2023/11/19 16:14:34;;;;;;;;;;;;;;;;;;2199536;67;1916;-25
2023/11/19 16:17:05;;;;;;;;;;;;;;;;;;2199371;67;2685;-25
2023/11/19 16:19:36;;;;;;;;;;;;;;;;;;2199447;67;1942;-25
2023/11/19 16:22:10;;;;;;;;;;;;;;;;;;2198944;67;3343;-25
2023/11/19 16:24:41;;;;;;;;;;;;;;;;;;2199432;59;2010;-25
2023/11/19 16:27:12;;;;;;;;;;;;;;;;;;2198530;59;1903;-25
2023/11/19 16:29:43;;;;;;;;;;;;;;;;;;2198322;59;2238;-25
2023/11/19 16:32:13;;;;;;;;;;;;;;;;;;2198509;59;2209;-25
2023/11/19 16:34:47;;;;;;;;;;;;;;;;;;2199943;60;2116;-25
2023/11/19 16:37:17;;;;;;;;;;;;;;;;;;2199102;59;2287;-25
2023/11/19 16:39:48;;;;;;;;;;;;;;;;;;2201080;59;1730;-25
2023/11/19 16:42:20;;;;;;;;;;;;;;;;;;2201185;59;2220;-25
2023/11/19 16:44:51;;;;;;;;;;;;;;;;;;2201392;59;1769;-26
2023/11/19 16:47:22;;;;;;;;;;;;;;;;;;2197858;59;2429;-24
2023/11/19 16:49:52;;;;;;;;;;;;;;;;;;2199621;59;1997;-25
2023/11/19 16:52:23;;;;;;;;;;;;;;;;;;2198065;59;2207;-25
2023/11/19 16:54:56;;;;;;;;;;;;;;;;;;2200010;67;1839;-24
2023/11/19 16:57:27;;;;;;;;;;;;;;;;;;2197983;59;2204;-23
2023/11/19 16:59:57;;;;;;;;;;;;;;;;;;2198877;62;1867;-23
2023/11/19 17:02:28;;;;;;;;;;;;;;;;;;2198442;59;2317;-23
2023/11/19 17:04:58;;;;;;;;;;;;;;;;;;2200070;67;2216;-23
2023/11/19 17:07:29;;;;;;;;;;;;;;;;;;2197875;59;2906;-23
2023/11/19 17:09:59;;;;;;;;;;;;;;;;;;2200415;59;2050;-24
2023/11/19 17:12:30;;;;;;;;;;;;;;;;;;2198390;59;2245;-24
2023/11/19 17:15:03;;;;;;;;;;;;;;;;;;2199948;61;1937;-24
2023/11/19 17:17:35;;;;;;;;;;;;;;;;;;2201168;59;2265;-24
2023/11/19 17:20:06;;;;;;;;;;;;;;;;;;2198847;67;2095;-24
2023/11/19 17:22:38;;;;;;;;;;;;;;;;;;2198144;59;2084;-25
2023/11/19 17:25:11;;;;;;;;;;;;;;;;;;2196518;59;2205;-24
2023/11/19 17:27:43;;;;;;;;;;;;;;;;;;2198166;59;2698;-24
2023/11/19 17:30:13;;;;;;;;;;;;;;;;;;2198473;59;2360;-24
2023/11/19 17:32:43;;;;;;;;;;;;;;;;;;2198274;59;1853;-24